createdAt,value
2022-12-01T00:02:35.000Z,102579.32
2022-12-01T00:07:35.000Z,102578.56
2022-12-01T00:12:35.000Z,102577.84
2022-12-01T00:17:34.000Z,102572.36
2022-12-01T00:22:35.000Z,102569.19
2022-12-01T00:27:34.000Z,102570.29
2022-12-01T00:32:35.000Z,102571.83
2022-12-01T00:37:34.000Z,102567.2
2022-12-01T00:42:35.000Z,102564.36
2022-12-01T00:52:35.000Z,102556.51
2022-12-01T00:57:34.000Z,102557.36
2022-12-01T01:02:35.000Z,102555.56
2022-12-01T01:07:35.000Z,102555.41
2022-12-01T01:12:35.000Z,102560.67
2022-12-01T01:17:34.000Z,102564.94
2022-12-01T01:22:35.000Z,102568.52
2022-12-01T01:27:35.000Z,102568.52
2022-12-01T01:32:34.000Z,102568.94
2022-12-01T01:37:34.000Z,102567.81
2022-12-01T01:42:35.000Z,102559.9
2022-12-01T01:47:34.000Z,102557.71
2022-12-01T01:52:35.000Z,102554.94
2022-12-01T01:57:34.000Z,102556.76
2022-12-01T02:02:35.000Z,102557.37
2022-12-01T02:07:34.000Z,102559.67
2022-12-01T02:12:35.000Z,102573.57
2022-12-01T02:17:34.000Z,102573.07
2022-12-01T02:22:35.000Z,102575.95
2022-12-01T02:27:34.000Z,102571.86
2022-12-01T02:32:35.000Z,102566.11
2022-12-01T02:37:35.000Z,102566.11
2022-12-01T02:42:34.000Z,102559.82
2022-12-01T02:47:35.000Z,102562.82
2022-12-01T02:52:35.000Z,102560.88
2022-12-01T02:57:35.000Z,102561.7
2022-12-01T03:02:34.000Z,102557.41
2022-12-01T03:07:35.000Z,102551.32
2022-12-01T03:12:35.000Z,102551.68
2022-12-01T03:17:34.000Z,102548.14
2022-12-01T03:27:35.000Z,102548.62
2022-12-01T03:32:35.000Z,102553.72
2022-12-01T03:37:34.000Z,102555.05
2022-12-01T03:42:35.000Z,102547.76
2022-12-01T03:47:34.000Z,102545.4
2022-12-01T03:52:35.000Z,102545.79
2022-12-01T03:57:35.000Z,102540.72
2022-12-01T04:02:35.000Z,102537.76
2022-12-01T04:07:35.000Z,102537.12
2022-12-01T04:12:35.000Z,102537.41
2022-12-01T04:22:34.000Z,102537.4
2022-12-01T04:27:35.000Z,102540.02
2022-12-01T04:32:34.000Z,102540.02
2022-12-01T04:37:34.000Z,102536.1
2022-12-01T04:42:35.000Z,102539.34
2022-12-01T04:47:34.000Z,102544.01
2022-12-01T04:57:34.000Z,102558.97
2022-12-01T05:02:35.000Z,102559.83
2022-12-01T05:07:34.000Z,102557.22
2022-12-01T05:12:35.000Z,102557.22
2022-12-01T05:17:34.000Z,102560.9
2022-12-01T05:23:13.000Z,102563.69
2022-12-01T05:27:34.000Z,102563.11
2022-12-01T05:32:35.000Z,102564.84
2022-12-01T05:37:34.000Z,102564.66
2022-12-01T05:42:35.000Z,102569.8
2022-12-01T05:47:34.000Z,102572.26
2022-12-01T05:52:35.000Z,102574.39
2022-12-01T05:57:34.000Z,102584.65
2022-12-01T06:02:34.000Z,102593.72
2022-12-01T06:07:35.000Z,102593.72
2022-12-01T06:12:34.000Z,102598.75
2022-12-01T06:17:34.000Z,102594.03
2022-12-01T06:22:34.000Z,102596.16
2022-12-01T06:27:34.000Z,102594.34
2022-12-01T06:32:35.000Z,102590.95
2022-12-01T06:37:35.000Z,102589.87
2022-12-01T06:42:35.000Z,102592.69
2022-12-01T06:47:35.000Z,102592.71
2022-12-01T06:52:35.000Z,102589.39
2022-12-01T06:57:35.000Z,102595.15
2022-12-01T07:07:35.000Z,102595.94
2022-12-01T07:12:35.000Z,102600.83
2022-12-01T07:17:34.000Z,102599.42
2022-12-01T07:27:34.000Z,102597.23
2022-12-01T07:32:34.000Z,102604.83
2022-12-01T07:37:35.000Z,102607.05
2022-12-01T07:47:35.000Z,102616.6
2022-12-01T07:52:34.000Z,102617.38
2022-12-01T08:02:34.000Z,102610.27
2022-12-01T08:07:39.000Z,102605.74
2022-12-01T08:12:34.000Z,102605.21
2022-12-01T08:17:35.000Z,102598.68
2022-12-01T08:22:34.000Z,102592.88
2022-12-01T08:27:35.000Z,102592.88
2022-12-01T08:32:34.000Z,102590.84
2022-12-01T08:37:35.000Z,102586.45
2022-12-01T08:42:34.000Z,102591.96
2022-12-01T08:47:35.000Z,102593.05
2022-12-01T08:52:34.000Z,102588.36
2022-12-01T08:57:34.000Z,102583.37
2022-12-01T09:02:34.000Z,102587.81
2022-12-01T09:07:37.000Z,102586.66
2022-12-01T09:12:35.000Z,102573.64
2022-12-01T09:17:35.000Z,102566.12
2022-12-01T09:22:35.000Z,102568.2
2022-12-01T09:27:34.000Z,102568.14
2022-12-01T09:32:35.000Z,102565.26
2022-12-01T09:37:34.000Z,102572.5
2022-12-01T09:42:35.000Z,102572.5
2022-12-01T09:47:35.000Z,102572.97
2022-12-01T09:57:35.000Z,102562.91
2022-12-01T10:02:35.000Z,102561.32
2022-12-01T10:07:34.000Z,102557.93
2022-12-01T10:12:34.000Z,102552.73
2022-12-01T10:17:35.000Z,102556.18
2022-12-01T10:22:34.000Z,102556.18
2022-12-01T10:27:35.000Z,102557.43
2022-12-01T10:32:34.000Z,102564.88
2022-12-01T10:37:35.000Z,102559.63
2022-12-01T10:42:35.000Z,102554.94
2022-12-01T10:47:34.000Z,102545.98
2022-12-01T10:52:34.000Z,102547.7
2022-12-01T10:57:35.000Z,102546.81
2022-12-01T11:02:35.000Z,102545.15
2022-12-01T11:07:35.000Z,102542.52
2022-12-01T11:12:35.000Z,102542.93
2022-12-01T11:17:34.000Z,102534.3
2022-12-01T11:22:34.000Z,102539.63
2022-12-01T11:27:35.000Z,102540.54
2022-12-01T11:32:34.000Z,102541.49
2022-12-01T11:37:35.000Z,102541.49
2022-12-01T11:42:35.000Z,102545.11
2022-12-01T11:47:35.000Z,102542.55
2022-12-01T11:52:35.000Z,102537.35
2022-12-01T11:57:44.000Z,102540.6
2022-12-01T12:02:34.000Z,102539.75
2022-12-01T12:07:34.000Z,102541.65
2022-12-01T12:12:35.000Z,102544.19
2022-12-01T12:17:34.000Z,102549.06
2022-12-01T12:22:35.000Z,102550
2022-12-01T12:27:35.000Z,102556.6
2022-12-01T12:32:35.000Z,102556.72
2022-12-01T12:37:35.000Z,102554.02
2022-12-01T12:42:34.000Z,102541.17
2022-12-01T12:47:35.000Z,102545.07
2022-12-01T12:52:34.000Z,102545.07
2022-12-01T12:57:35.000Z,102554
2022-12-01T13:02:35.000Z,102551.09
2022-12-01T13:07:35.000Z,102546.97
2022-12-01T13:12:34.000Z,102541.77
2022-12-01T13:17:34.000Z,102540.33
2022-12-01T13:22:34.000Z,102541.03
2022-12-01T13:27:34.000Z,102542
2022-12-01T13:32:35.000Z,102545.87
2022-12-01T13:37:35.000Z,102538.98
2022-12-01T13:42:34.000Z,102546.25
2022-12-01T13:47:35.000Z,102548.17
2022-12-01T13:52:35.000Z,102549.28
2022-12-01T13:57:34.000Z,102547.62
2022-12-01T14:02:35.000Z,102549.44
2022-12-01T14:07:35.000Z,102549.44
2022-12-01T14:12:35.000Z,102539.97
2022-12-01T14:17:34.000Z,102537.34
2022-12-01T14:22:35.000Z,102535.73
2022-12-01T14:27:35.000Z,102530.24
2022-12-01T14:32:34.000Z,102524.95
2022-12-01T14:37:35.000Z,102522.73
2022-12-01T14:47:35.000Z,102514.72
2022-12-01T14:52:35.000Z,102521.07
2022-12-01T14:57:34.000Z,102518.38
2022-12-01T15:02:35.000Z,102519.15
2022-12-01T15:07:35.000Z,102521.49
2022-12-01T15:12:35.000Z,102521.49
2022-12-01T15:17:35.000Z,102520
2022-12-01T15:22:34.000Z,102511.8
2022-12-01T15:27:35.000Z,102511.42
2022-12-01T15:32:35.000Z,102504.91
2022-12-01T15:37:34.000Z,102504.5
2022-12-01T15:42:34.000Z,102502.58
2022-12-01T15:47:35.000Z,102508.89
2022-12-01T15:52:34.000Z,102522.89
2022-12-01T15:57:35.000Z,102525.52
2022-12-01T16:02:35.000Z,102518.1
2022-12-01T16:07:38.000Z,102517.48
2022-12-01T16:12:34.000Z,102514.1
2022-12-01T16:17:34.000Z,102510.25
2022-12-01T16:22:35.000Z,102510.25
2022-12-01T16:27:35.000Z,102510.86
2022-12-01T16:32:35.000Z,102507.44
2022-12-01T16:37:35.000Z,102509.94
2022-12-01T16:42:34.000Z,102511.24
2022-12-01T16:47:35.000Z,102510.29
2022-12-01T16:52:55.000Z,102494.67
2022-12-01T16:57:34.000Z,102497.81
2022-12-01T17:02:35.000Z,102493.26
2022-12-01T17:07:34.000Z,102491.81
2022-12-01T17:12:35.000Z,102493.64
2022-12-01T17:22:35.000Z,102499.09
2022-12-01T17:27:35.000Z,102497.82
2022-12-01T17:32:34.000Z,102497.32
2022-12-01T17:37:35.000Z,102493.73
2022-12-01T17:42:34.000Z,102495.42
2022-12-01T17:47:35.000Z,102491.51
2022-12-01T17:52:38.000Z,102479.54
2022-12-01T17:57:35.000Z,102481.57
2022-12-01T18:02:35.000Z,102480.86
2022-12-01T18:07:35.000Z,102486.53
2022-12-01T18:12:34.000Z,102486.53
2022-12-01T18:17:35.000Z,102490.07
2022-12-01T18:22:34.000Z,102485.62
2022-12-01T18:27:35.000Z,102493.25
2022-12-01T18:32:35.000Z,102487.83
2022-12-01T18:37:35.000Z,102484.43
2022-12-01T18:42:35.000Z,102478.78
2022-12-01T18:52:34.000Z,102488.68
2022-12-01T18:57:34.000Z,102493.4
2022-12-01T19:02:35.000Z,102490.98
2022-12-01T19:07:40.000Z,102492.49
2022-12-01T19:12:35.000Z,102489.39
2022-12-01T19:17:34.000Z,102503.45
2022-12-01T19:22:35.000Z,102506.1
2022-12-01T19:27:35.000Z,102500.78
2022-12-01T19:32:34.000Z,102505.82
2022-12-01T19:37:35.000Z,102517.6
2022-12-01T19:42:35.000Z,102526.84
2022-12-01T19:47:35.000Z,102531.84
2022-12-01T19:52:34.000Z,102539.48
2022-12-01T19:57:35.000Z,102544.56
2022-12-01T20:02:39.000Z,102544.56
2022-12-01T20:07:35.000Z,102544.56
2022-12-01T20:12:35.000Z,102535.78
2022-12-01T20:17:34.000Z,102526.88
2022-12-01T20:22:35.000Z,102531.5
2022-12-01T20:27:34.000Z,102527.53
2022-12-01T20:32:35.000Z,102528.96
2022-12-01T20:37:34.000Z,102530.84
2022-12-01T20:42:35.000Z,102527.79
2022-12-01T20:47:34.000Z,102524.41
2022-12-01T20:52:35.000Z,102522.31
2022-12-01T20:57:34.000Z,102522.02
2022-12-01T21:02:35.000Z,102515.52
2022-12-01T21:07:34.000Z,102520.31
2022-12-01T21:12:34.000Z,102524.13
2022-12-01T21:17:35.000Z,102524.13
2022-12-01T21:22:35.000Z,102529.38
2022-12-01T21:27:34.000Z,102531.89
2022-12-01T21:32:35.000Z,102532.79
2022-12-01T21:37:34.000Z,102529.4
2022-12-01T21:42:35.000Z,102522.16
2022-12-01T21:47:34.000Z,102527.22
2022-12-01T21:52:35.000Z,102528.16
2022-12-01T21:57:34.000Z,102514.5
2022-12-01T22:02:35.000Z,102522.1
2022-12-01T22:07:34.000Z,102522.79
2022-12-01T22:12:35.000Z,102523.6
2022-12-01T22:17:34.000Z,102517.65
2022-12-01T22:22:35.000Z,102520.69
2022-12-01T22:27:35.000Z,102520.69
2022-12-01T22:32:34.000Z,102518.11
2022-12-01T22:37:34.000Z,102516.8
2022-12-01T22:42:35.000Z,102517.64
2022-12-01T22:47:34.000Z,102516.58
2022-12-01T22:57:35.000Z,102512.6
2022-12-01T23:02:34.000Z,102506.06
2022-12-01T23:07:35.000Z,102513.15
2022-12-01T23:12:34.000Z,102515.04
2022-12-01T23:17:35.000Z,102515.04
2022-12-01T23:22:34.000Z,102513.73
2022-12-01T23:27:34.000Z,102510.56
2022-12-01T23:32:35.000Z,102509.57
2022-12-01T23:37:34.000Z,102510.6
2022-12-01T23:42:35.000Z,102510.92
2022-12-01T23:47:35.000Z,102514.47
2022-12-01T23:52:35.000Z,102514.73
2022-12-01T23:57:34.000Z,102511.86
